CLF2 LSZR-LIRQ
Flight info
| Callsign | CLF2 |
|---|---|
| Flight time | 1h 42m |
| Altitude | 23000 |
| Route | BEMKI L607 ELMEM N606 GIRIS DCT DIKEM DCT VIC/N0234F190 L12 LOMED |
| Aircraft | BE60/L-SDFGRY/C |
Departure
| Time | 2026-05-04 10:33 |
|---|---|
| Airport | Sankt Gallen Altenrhein Airport (LSZR) |
Arrival
| Time | 2026-05-04 12:16 |
|---|---|
| Airport | Florence Airport, Peretola (LIRQ) |
| Time | Latitude | Longitude | Altitude | Speed | Heading |
|---|---|---|---|---|---|
| 2026-05-04 10:16 | 47.48748 | 9.55428 | 1309 ft | 0 kts | 187° |
| 2026-05-04 10:28 | 47.48751 | 9.55402 | 1291 ft | 8 kts | 331° |
| 2026-05-04 10:29 | 47.48764 | 9.55360 | 1309 ft | 4 kts | 248° |
| 2026-05-04 10:29 | 47.48751 | 9.55350 | 1309 ft | 2 kts | 175° |
| 2026-05-04 10:29 | 47.48736 | 9.55349 | 1309 ft | 3 kts | 187° |
| 2026-05-04 10:29 | 47.48691 | 9.55340 | 1309 ft | 8 kts | 186° |
| 2026-05-04 10:30 | 47.48674 | 9.55337 | 1309 ft | 1 kts | 188° |
| 2026-05-04 10:30 | 47.48671 | 9.55336 | 1309 ft | 0 kts | 189° |
| 2026-05-04 10:32 | 47.48580 | 9.55348 | 1312 ft | 0 kts | 97° |
| 2026-05-04 10:33 | 47.48565 | 9.55499 | 1312 ft | 48 kts | 98° |
| 2026-05-04 10:33 | 47.48470 | 9.56284 | 1365 ft | 95 kts | 102° |
| 2026-05-04 10:33 | 47.48304 | 9.57273 | 1708 ft | 105 kts | 105° |
| 2026-05-04 10:33 | 47.48091 | 9.58334 | 2117 ft | 107 kts | 91° |
| 2026-05-04 10:34 | 47.48322 | 9.59347 | 2502 ft | 110 kts | 45° |
| 2026-05-04 10:34 | 47.48971 | 9.59944 | 2810 ft | 114 kts | 16° |
| 2026-05-04 10:34 | 47.49769 | 9.60036 | 3130 ft | 118 kts | 350° |
| 2026-05-04 10:34 | 47.50477 | 9.59416 | 3395 ft | 123 kts | 312° |
| 2026-05-04 10:35 | 47.50855 | 9.58294 | 3729 ft | 123 kts | 281° |
| 2026-05-04 10:35 | 47.50755 | 9.57034 | 4001 ft | 128 kts | 260° |
| 2026-05-04 10:35 | 47.50714 | 9.55800 | 4533 ft | 106 kts | 278° |
| 2026-05-04 10:35 | 47.50967 | 9.54770 | 4896 ft | 109 kts | 281° |
| 2026-05-04 10:36 | 47.50721 | 9.53793 | 5208 ft | 107 kts | 213° |
| 2026-05-04 10:36 | 47.50299 | 9.52945 | 5592 ft | 110 kts | 269° |
| 2026-05-04 10:36 | 47.50697 | 9.51983 | 5983 ft | 115 kts | 313° |
| 2026-05-04 10:36 | 47.51261 | 9.51135 | 6367 ft | 117 kts | 311° |
| 2026-05-04 10:37 | 47.51786 | 9.50226 | 6704 ft | 115 kts | 287° |
| 2026-05-04 10:37 | 47.51767 | 9.49092 | 6982 ft | 114 kts | 257° |
| 2026-05-04 10:37 | 47.51663 | 9.47912 | 7310 ft | 116 kts | 257° |
| 2026-05-04 10:37 | 47.51579 | 9.46718 | 7662 ft | 117 kts | 259° |
| 2026-05-04 10:39 | 47.51189 | 9.37397 | 8832 ft | 159 kts | 261° |
| 2026-05-04 10:39 | 47.51110 | 9.35774 | 9130 ft | 158 kts | 262° |
| 2026-05-04 10:39 | 47.51040 | 9.34158 | 9304 ft | 157 kts | 263° |
| 2026-05-04 10:40 | 47.51131 | 9.32548 | 9454 ft | 163 kts | 290° |
| 2026-05-04 10:40 | 47.51954 | 9.31378 | 9687 ft | 173 kts | 336° |
| 2026-05-04 10:40 | 47.53129 | 9.31388 | 9949 ft | 172 kts | 24° |
| 2026-05-04 10:40 | 47.53971 | 9.32565 | 10197 ft | 167 kts | 62° |
| 2026-05-04 10:41 | 47.54550 | 9.34046 | 10453 ft | 166 kts | 61° |
| 2026-05-04 10:41 | 47.55175 | 9.35484 | 10704 ft | 167 kts | 59° |
| 2026-05-04 10:41 | 47.55814 | 9.36913 | 10937 ft | 171 kts | 59° |
| 2026-05-04 10:41 | 47.56486 | 9.38379 | 11319 ft | 173 kts | 59° |
| 2026-05-04 10:42 | 47.57157 | 9.39861 | 11600 ft | 172 kts | 59° |
| 2026-05-04 10:42 | 47.57822 | 9.41340 | 11873 ft | 173 kts | 59° |
| 2026-05-04 10:42 | 47.58308 | 9.42929 | 12131 ft | 168 kts | 85° |
| 2026-05-04 10:42 | 47.58469 | 9.44641 | 12400 ft | 168 kts | 86° |
| 2026-05-04 10:43 | 47.58653 | 9.46356 | 12668 ft | 169 kts | 86° |
| 2026-05-04 10:44 | 47.59922 | 9.58597 | 14614 ft | 174 kts | 88° |
| 2026-05-04 10:45 | 47.60105 | 9.60372 | 14940 ft | 174 kts | 88° |
| 2026-05-04 10:45 | 47.60285 | 9.62130 | 15226 ft | 175 kts | 88° |
| 2026-05-04 10:45 | 47.60581 | 9.63899 | 15470 ft | 179 kts | 79° |
| 2026-05-04 10:45 | 47.60947 | 9.65678 | 15714 ft | 181 kts | 79° |
| 2026-05-04 10:46 | 47.61304 | 9.67477 | 15977 ft | 182 kts | 80° |
| 2026-05-04 10:46 | 47.61665 | 9.69287 | 16239 ft | 183 kts | 80° |
| 2026-05-04 10:46 | 47.62029 | 9.71104 | 16505 ft | 184 kts | 80° |
| 2026-05-04 10:46 | 47.62393 | 9.72927 | 16772 ft | 185 kts | 80° |
| 2026-05-04 10:47 | 47.62757 | 9.74755 | 17059 ft | 185 kts | 80° |
| 2026-05-04 10:47 | 47.63124 | 9.76592 | 17357 ft | 186 kts | 80° |
| 2026-05-04 10:47 | 47.63492 | 9.78435 | 17601 ft | 187 kts | 80° |
| 2026-05-04 10:47 | 47.63860 | 9.80287 | 17873 ft | 187 kts | 80° |
| 2026-05-04 10:49 | 47.66452 | 9.93362 | 19584 ft | 188 kts | 81° |
| 2026-05-04 10:49 | 47.66546 | 9.95240 | 19834 ft | 179 kts | 106° |
| 2026-05-04 10:50 | 47.66337 | 9.96406 | 19987 ft | 174 kts | 120° |
| 2026-05-04 10:51 | 47.62857 | 10.07886 | 21391 ft | 179 kts | 120° |
| 2026-05-04 10:52 | 47.62347 | 10.09566 | 21584 ft | 179 kts | 120° |
| 2026-05-04 10:52 | 47.61836 | 10.11250 | 21732 ft | 180 kts | 120° |
| 2026-05-04 10:52 | 47.61318 | 10.12948 | 21856 ft | 181 kts | 120° |
| 2026-05-04 10:54 | 47.58040 | 10.23715 | 22735 ft | 179 kts | 120° |
| 2026-05-04 10:54 | 47.57534 | 10.25365 | 22827 ft | 177 kts | 120° |
| 2026-05-04 10:56 | 47.52174 | 10.34696 | 23028 ft | 177 kts | 148° |
| 2026-05-04 10:56 | 47.51173 | 10.35791 | 23032 ft | 181 kts | 147° |
| 2026-05-04 10:56 | 47.50136 | 10.36925 | 23025 ft | 189 kts | 147° |
| 2026-05-04 10:57 | 47.49057 | 10.38105 | 23028 ft | 195 kts | 147° |
| 2026-05-04 10:57 | 47.47956 | 10.39305 | 23029 ft | 198 kts | 148° |
| 2026-05-04 10:57 | 47.46840 | 10.40529 | 23031 ft | 201 kts | 147° |
| 2026-05-04 10:57 | 47.45728 | 10.41744 | 23034 ft | 201 kts | 148° |
| 2026-05-04 10:58 | 47.44603 | 10.42971 | 23028 ft | 202 kts | 147° |
| 2026-05-04 10:58 | 47.43470 | 10.44203 | 23030 ft | 202 kts | 147° |
| 2026-05-04 10:58 | 47.42338 | 10.45439 | 23033 ft | 203 kts | 147° |
| 2026-05-04 10:58 | 47.41199 | 10.46683 | 23036 ft | 204 kts | 147° |
| 2026-05-04 10:59 | 47.40040 | 10.47934 | 23037 ft | 208 kts | 149° |
| 2026-05-04 10:59 | 47.38769 | 10.48984 | 23035 ft | 211 kts | 156° |
| 2026-05-04 10:59 | 47.37459 | 10.50007 | 23041 ft | 215 kts | 155° |
| 2026-05-04 10:59 | 47.36132 | 10.51063 | 23042 ft | 218 kts | 154° |
| 2026-05-04 11:00 | 47.34800 | 10.52119 | 23028 ft | 222 kts | 155° |
| 2026-05-04 11:01 | 47.25379 | 10.59592 | 23036 ft | 218 kts | 155° |
| 2026-05-04 11:02 | 47.24040 | 10.60654 | 23040 ft | 219 kts | 155° |
| 2026-05-04 11:02 | 47.22700 | 10.61713 | 23039 ft | 218 kts | 155° |
| 2026-05-04 11:05 | 47.03139 | 10.73802 | 23050 ft | 216 kts | 162° |
| 2026-05-04 11:06 | 47.01733 | 10.74573 | 23055 ft | 216 kts | 162° |
| 2026-05-04 11:06 | 47.00329 | 10.75370 | 23059 ft | 217 kts | 161° |
| 2026-05-04 11:06 | 46.98922 | 10.76173 | 23054 ft | 217 kts | 162° |
| 2026-05-04 11:06 | 46.97504 | 10.76976 | 23058 ft | 218 kts | 162° |
| 2026-05-04 11:08 | 46.87563 | 10.82580 | 23065 ft | 218 kts | 162° |
| 2026-05-04 11:10 | 46.77627 | 10.88160 | 23070 ft | 219 kts | 162° |
| 2026-05-04 11:12 | 46.68051 | 10.94920 | 23076 ft | 219 kts | 157° |
| 2026-05-04 11:12 | 46.66677 | 10.95898 | 23074 ft | 220 kts | 157° |
| 2026-05-04 11:12 | 46.65301 | 10.96877 | 23069 ft | 220 kts | 157° |
| 2026-05-04 11:12 | 46.63940 | 10.97843 | 23068 ft | 220 kts | 157° |
| 2026-05-04 11:13 | 46.62569 | 10.98819 | 23065 ft | 219 kts | 157° |
| 2026-05-04 11:13 | 46.61196 | 10.99794 | 23062 ft | 219 kts | 157° |
| 2026-05-04 11:13 | 46.59827 | 11.00766 | 23061 ft | 219 kts | 157° |
| 2026-05-04 11:13 | 46.58455 | 11.01739 | 23062 ft | 220 kts | 157° |
| 2026-05-04 11:14 | 46.57076 | 11.02716 | 23064 ft | 220 kts | 157° |
| 2026-05-04 11:14 | 46.55701 | 11.03691 | 23056 ft | 220 kts | 157° |
| 2026-05-04 11:14 | 46.54324 | 11.04664 | 23053 ft | 219 kts | 157° |
| 2026-05-04 11:16 | 46.44772 | 11.11413 | 23211 ft | 219 kts | 157° |
| 2026-05-04 11:16 | 46.43398 | 11.12381 | 23221 ft | 220 kts | 157° |
| 2026-05-04 11:16 | 46.42024 | 11.13350 | 23229 ft | 220 kts | 157° |
| 2026-05-04 11:17 | 46.40647 | 11.14319 | 23238 ft | 221 kts | 157° |
| 2026-05-04 11:17 | 46.39265 | 11.15292 | 23238 ft | 221 kts | 157° |
| 2026-05-04 11:19 | 46.29579 | 11.22093 | 23238 ft | 222 kts | 157° |
| 2026-05-04 11:19 | 46.28191 | 11.23066 | 23240 ft | 222 kts | 157° |
| 2026-05-04 11:19 | 46.26811 | 11.24018 | 23233 ft | 222 kts | 157° |
| 2026-05-04 11:19 | 46.25419 | 11.24990 | 23227 ft | 222 kts | 157° |
| 2026-05-04 11:20 | 46.24028 | 11.25973 | 23217 ft | 222 kts | 156° |
| 2026-05-04 11:20 | 46.22638 | 11.26951 | 23214 ft | 222 kts | 157° |
| 2026-05-04 11:20 | 46.21242 | 11.27926 | 23207 ft | 223 kts | 157° |
| 2026-05-04 11:20 | 46.19844 | 11.28902 | 23188 ft | 223 kts | 157° |
| 2026-05-04 11:22 | 46.10098 | 11.35690 | 23136 ft | 222 kts | 157° |
| 2026-05-04 11:22 | 46.08706 | 11.36658 | 23130 ft | 222 kts | 157° |
| 2026-05-04 11:23 | 46.07313 | 11.37623 | 23122 ft | 222 kts | 157° |
| 2026-05-04 11:23 | 46.05922 | 11.38590 | 23115 ft | 222 kts | 157° |
| 2026-05-04 11:24 | 45.97588 | 11.44367 | 23094 ft | 220 kts | 158° |
| 2026-05-04 11:25 | 45.96202 | 11.45325 | 23095 ft | 221 kts | 157° |
| 2026-05-04 11:25 | 45.94816 | 11.46283 | 23092 ft | 221 kts | 157° |
| 2026-05-04 11:25 | 45.93428 | 11.47240 | 23098 ft | 221 kts | 158° |
| 2026-05-04 11:26 | 45.90641 | 11.49164 | 23101 ft | 222 kts | 157° |
| 2026-05-04 11:27 | 45.80897 | 11.55875 | 23101 ft | 222 kts | 157° |
| 2026-05-04 11:28 | 45.79504 | 11.56834 | 23099 ft | 222 kts | 157° |
| 2026-05-04 11:28 | 45.78105 | 11.57793 | 23101 ft | 223 kts | 157° |
| 2026-05-04 11:28 | 45.76705 | 11.58752 | 23101 ft | 224 kts | 157° |
| 2026-05-04 11:28 | 45.75305 | 11.59717 | 23103 ft | 224 kts | 157° |
| 2026-05-04 11:29 | 45.73896 | 11.60685 | 23101 ft | 225 kts | 157° |
| 2026-05-04 11:29 | 45.72486 | 11.61645 | 23105 ft | 225 kts | 157° |
| 2026-05-04 11:29 | 45.71087 | 11.62603 | 23103 ft | 225 kts | 157° |
| 2026-05-04 11:29 | 45.69672 | 11.63575 | 23105 ft | 226 kts | 157° |
| 2026-05-04 11:31 | 45.59412 | 11.67317 | 23107 ft | 220 kts | 185° |
| 2026-05-04 11:33 | 45.48654 | 11.66538 | 23104 ft | 221 kts | 185° |
| 2026-05-04 11:33 | 45.47114 | 11.66427 | 23104 ft | 222 kts | 185° |
| 2026-05-04 11:33 | 45.45572 | 11.66315 | 23101 ft | 221 kts | 185° |
| 2026-05-04 11:34 | 45.44028 | 11.66203 | 23106 ft | 222 kts | 185° |
| 2026-05-04 11:34 | 45.42485 | 11.66091 | 23100 ft | 222 kts | 185° |
| 2026-05-04 11:34 | 45.40943 | 11.65979 | 23101 ft | 222 kts | 185° |
| 2026-05-04 11:34 | 45.39401 | 11.65869 | 23101 ft | 222 kts | 185° |
| 2026-05-04 11:35 | 45.37881 | 11.65757 | 23100 ft | 221 kts | 185° |
| 2026-05-04 11:35 | 45.36340 | 11.65646 | 23098 ft | 221 kts | 185° |
| 2026-05-04 11:35 | 45.34804 | 11.65536 | 23100 ft | 221 kts | 185° |
| 2026-05-04 11:35 | 45.33269 | 11.65425 | 23100 ft | 221 kts | 185° |
| 2026-05-04 11:36 | 45.31736 | 11.65314 | 23102 ft | 221 kts | 185° |
| 2026-05-04 11:36 | 45.30198 | 11.65203 | 23101 ft | 221 kts | 185° |
| 2026-05-04 11:36 | 45.28664 | 11.65092 | 23096 ft | 221 kts | 185° |
| 2026-05-04 11:36 | 45.27128 | 11.64983 | 23099 ft | 221 kts | 185° |
| 2026-05-04 11:37 | 45.25591 | 11.64872 | 23103 ft | 221 kts | 185° |
| 2026-05-04 11:37 | 45.24054 | 11.64760 | 23101 ft | 221 kts | 185° |
| 2026-05-04 11:37 | 45.22512 | 11.64649 | 23106 ft | 222 kts | 185° |
| 2026-05-04 11:37 | 45.20967 | 11.64540 | 23103 ft | 222 kts | 185° |
| 2026-05-04 11:38 | 45.19450 | 11.64430 | 23102 ft | 221 kts | 185° |
| 2026-05-04 11:38 | 45.17913 | 11.64319 | 23105 ft | 221 kts | 185° |
| 2026-05-04 11:38 | 45.16374 | 11.64208 | 23108 ft | 221 kts | 185° |
| 2026-05-04 11:38 | 45.14834 | 11.64099 | 23108 ft | 221 kts | 185° |
| 2026-05-04 11:39 | 45.13815 | 11.64024 | 23102 ft | 221 kts | 185° |
| 2026-05-04 11:39 | 45.12278 | 11.63908 | 23105 ft | 221 kts | 185° |
| 2026-05-04 11:40 | 45.03052 | 11.63226 | 23046 ft | 223 kts | 185° |
| 2026-05-04 11:41 | 45.01488 | 11.63112 | 22837 ft | 225 kts | 185° |
| 2026-05-04 11:41 | 44.99917 | 11.62998 | 22629 ft | 225 kts | 184° |
| 2026-05-04 11:41 | 44.98370 | 11.62883 | 22422 ft | 226 kts | 184° |
| 2026-05-04 11:41 | 44.96801 | 11.62767 | 22234 ft | 226 kts | 184° |
| 2026-05-04 11:42 | 44.95226 | 11.62651 | 22054 ft | 226 kts | 184° |
| 2026-05-04 11:42 | 44.93652 | 11.62534 | 21872 ft | 227 kts | 184° |
| 2026-05-04 11:42 | 44.92073 | 11.62419 | 21698 ft | 227 kts | 184° |
| 2026-05-04 11:42 | 44.90492 | 11.62304 | 21522 ft | 228 kts | 184° |
| 2026-05-04 11:43 | 44.88951 | 11.62190 | 21372 ft | 228 kts | 184° |
| 2026-05-04 11:43 | 44.87363 | 11.62074 | 21192 ft | 229 kts | 184° |
| 2026-05-04 11:43 | 44.85770 | 11.61957 | 21039 ft | 229 kts | 184° |
| 2026-05-04 11:43 | 44.84177 | 11.61840 | 20874 ft | 230 kts | 184° |
| 2026-05-04 11:44 | 44.82577 | 11.61722 | 20722 ft | 230 kts | 184° |
| 2026-05-04 11:44 | 44.81024 | 11.61261 | 20565 ft | 229 kts | 202° |
| 2026-05-04 11:44 | 44.79614 | 11.60202 | 20415 ft | 230 kts | 209° |
| 2026-05-04 11:44 | 44.78224 | 11.59097 | 20275 ft | 230 kts | 208° |
| 2026-05-04 11:45 | 44.76848 | 11.58018 | 20131 ft | 230 kts | 208° |
| 2026-05-04 11:45 | 44.75452 | 11.56921 | 19995 ft | 229 kts | 208° |
| 2026-05-04 11:45 | 44.74062 | 11.55827 | 19875 ft | 229 kts | 208° |
| 2026-05-04 11:45 | 44.72670 | 11.54731 | 19752 ft | 229 kts | 208° |
| 2026-05-04 11:46 | 44.71280 | 11.53640 | 19621 ft | 229 kts | 208° |
| 2026-05-04 11:46 | 44.69888 | 11.52550 | 19485 ft | 229 kts | 208° |
| 2026-05-04 11:46 | 44.68501 | 11.51460 | 19348 ft | 228 kts | 208° |
| 2026-05-04 11:46 | 44.67115 | 11.50373 | 19210 ft | 228 kts | 208° |
| 2026-05-04 11:47 | 44.65732 | 11.49285 | 19104 ft | 226 kts | 208° |
| 2026-05-04 11:47 | 44.64377 | 11.48222 | 19108 ft | 221 kts | 208° |
| 2026-05-04 11:47 | 44.63047 | 11.47184 | 19104 ft | 217 kts | 208° |
| 2026-05-04 11:47 | 44.61737 | 11.46159 | 19100 ft | 214 kts | 208° |
| 2026-05-04 11:48 | 44.60436 | 11.45141 | 19099 ft | 213 kts | 208° |
| 2026-05-04 11:48 | 44.59142 | 11.44133 | 19096 ft | 212 kts | 208° |
| 2026-05-04 11:48 | 44.57863 | 11.43135 | 19091 ft | 210 kts | 208° |
| 2026-05-04 11:48 | 44.56595 | 11.42149 | 19090 ft | 207 kts | 208° |
| 2026-05-04 11:49 | 44.55339 | 11.41172 | 19100 ft | 206 kts | 208° |
| 2026-05-04 11:49 | 44.54087 | 11.40193 | 19101 ft | 206 kts | 208° |
| 2026-05-04 11:49 | 44.52839 | 11.39223 | 19091 ft | 205 kts | 208° |
| 2026-05-04 11:49 | 44.51598 | 11.38258 | 19098 ft | 203 kts | 208° |
| 2026-05-04 11:50 | 44.50361 | 11.37296 | 19095 ft | 203 kts | 208° |
| 2026-05-04 11:50 | 44.49128 | 11.36336 | 19092 ft | 203 kts | 208° |
| 2026-05-04 11:50 | 44.47894 | 11.35377 | 19093 ft | 203 kts | 209° |
| 2026-05-04 11:50 | 44.46661 | 11.34411 | 19093 ft | 203 kts | 209° |
| 2026-05-04 11:51 | 44.45432 | 11.33448 | 19101 ft | 202 kts | 209° |
| 2026-05-04 11:51 | 44.44221 | 11.32497 | 19097 ft | 202 kts | 209° |
| 2026-05-04 11:51 | 44.42990 | 11.31540 | 19117 ft | 202 kts | 208° |
| 2026-05-04 11:51 | 44.41760 | 11.30581 | 19113 ft | 202 kts | 209° |
| 2026-05-04 11:52 | 44.40531 | 11.29620 | 19099 ft | 203 kts | 209° |
| 2026-05-04 11:52 | 44.39302 | 11.28660 | 19110 ft | 202 kts | 209° |
| 2026-05-04 11:52 | 44.38071 | 11.27706 | 19106 ft | 202 kts | 209° |
| 2026-05-04 11:52 | 44.36843 | 11.26747 | 19102 ft | 201 kts | 209° |
| 2026-05-04 11:53 | 44.35620 | 11.25790 | 19106 ft | 203 kts | 209° |
| 2026-05-04 11:53 | 44.34392 | 11.24835 | 19109 ft | 203 kts | 210° |
| 2026-05-04 11:53 | 44.33154 | 11.23874 | 19108 ft | 203 kts | 210° |
| 2026-05-04 11:53 | 44.31941 | 11.22929 | 19107 ft | 202 kts | 210° |
| 2026-05-04 11:55 | 44.23324 | 11.16237 | 19113 ft | 202 kts | 210° |
| 2026-05-04 11:55 | 44.22085 | 11.15277 | 18918 ft | 207 kts | 210° |
| 2026-05-04 11:56 | 44.20799 | 11.14280 | 18474 ft | 216 kts | 210° |
| 2026-05-04 11:56 | 44.19468 | 11.13248 | 17938 ft | 221 kts | 210° |
| 2026-05-04 11:56 | 44.18119 | 11.12205 | 17515 ft | 221 kts | 209° |
| 2026-05-04 11:56 | 44.16772 | 11.11157 | 17122 ft | 221 kts | 210° |
| 2026-05-04 11:57 | 44.15437 | 11.10114 | 16821 ft | 219 kts | 209° |
| 2026-05-04 11:57 | 44.14110 | 11.09093 | 16485 ft | 217 kts | 208° |
| 2026-05-04 11:57 | 44.12791 | 11.08081 | 16182 ft | 215 kts | 208° |
| 2026-05-04 11:57 | 44.11485 | 11.07075 | 15832 ft | 214 kts | 208° |
| 2026-05-04 11:58 | 44.10202 | 11.06094 | 15494 ft | 211 kts | 207° |
| 2026-05-04 11:58 | 44.08924 | 11.05115 | 15157 ft | 208 kts | 207° |
| 2026-05-04 11:58 | 44.07662 | 11.04143 | 14802 ft | 206 kts | 207° |
| 2026-05-04 11:58 | 44.06424 | 11.03186 | 14474 ft | 204 kts | 206° |
| 2026-05-04 11:59 | 44.05181 | 11.02230 | 14188 ft | 203 kts | 206° |
| 2026-05-04 11:59 | 44.03949 | 11.01284 | 13875 ft | 202 kts | 206° |
| 2026-05-04 11:59 | 44.02727 | 11.00332 | 13509 ft | 201 kts | 208° |
| 2026-05-04 11:59 | 44.01599 | 10.99168 | 13178 ft | 201 kts | 214° |
| 2026-05-04 12:00 | 44.00508 | 10.97991 | 12895 ft | 200 kts | 214° |
| 2026-05-04 12:00 | 43.99406 | 10.96820 | 12529 ft | 199 kts | 214° |
| 2026-05-04 12:00 | 43.98302 | 10.95651 | 12298 ft | 198 kts | 214° |
| 2026-05-04 12:00 | 43.97210 | 10.94493 | 12002 ft | 197 kts | 214° |
| 2026-05-04 12:01 | 43.96117 | 10.93333 | 11717 ft | 196 kts | 214° |
| 2026-05-04 12:01 | 43.95033 | 10.92184 | 11447 ft | 195 kts | 214° |
| 2026-05-04 12:02 | 43.88829 | 10.85692 | 10238 ft | 180 kts | 206° |
| 2026-05-04 12:03 | 43.87650 | 10.85221 | 9971 ft | 177 kts | 188° |
| 2026-05-04 12:03 | 43.86441 | 10.84926 | 9730 ft | 176 kts | 189° |
| 2026-05-04 12:03 | 43.85240 | 10.84601 | 9533 ft | 176 kts | 189° |
| 2026-05-04 12:03 | 43.84042 | 10.84288 | 9313 ft | 175 kts | 189° |
| 2026-05-04 12:04 | 43.82849 | 10.83980 | 9081 ft | 174 kts | 189° |
| 2026-05-04 12:04 | 43.81654 | 10.83668 | 8859 ft | 174 kts | 189° |
| 2026-05-04 12:04 | 43.80463 | 10.83360 | 8642 ft | 174 kts | 189° |
| 2026-05-04 12:04 | 43.79273 | 10.83049 | 8416 ft | 174 kts | 189° |
| 2026-05-04 12:05 | 43.78103 | 10.82745 | 8210 ft | 173 kts | 189° |
| 2026-05-04 12:05 | 43.76916 | 10.82437 | 7981 ft | 173 kts | 189° |
| 2026-05-04 12:05 | 43.75728 | 10.82130 | 7749 ft | 173 kts | 189° |
| 2026-05-04 12:05 | 43.74545 | 10.81822 | 7528 ft | 173 kts | 189° |
| 2026-05-04 12:06 | 43.73366 | 10.81516 | 7294 ft | 172 kts | 189° |
| 2026-05-04 12:06 | 43.72189 | 10.81211 | 7080 ft | 172 kts | 189° |
| 2026-05-04 12:06 | 43.71012 | 10.80905 | 6862 ft | 172 kts | 189° |
| 2026-05-04 12:06 | 43.69837 | 10.80602 | 6654 ft | 171 kts | 189° |
| 2026-05-04 12:07 | 43.68661 | 10.80439 | 6435 ft | 170 kts | 173° |
| 2026-05-04 12:07 | 43.67554 | 10.80977 | 6192 ft | 170 kts | 149° |
| 2026-05-04 12:07 | 43.66650 | 10.82038 | 5945 ft | 170 kts | 139° |
| 2026-05-04 12:07 | 43.65772 | 10.83136 | 5728 ft | 170 kts | 140° |
| 2026-05-04 12:08 | 43.64891 | 10.84219 | 5513 ft | 169 kts | 140° |
| 2026-05-04 12:08 | 43.64016 | 10.85303 | 5319 ft | 169 kts | 140° |
| 2026-05-04 12:08 | 43.63146 | 10.86383 | 5099 ft | 168 kts | 140° |
| 2026-05-04 12:08 | 43.62299 | 10.87497 | 4887 ft | 169 kts | 131° |
| 2026-05-04 12:09 | 43.61822 | 10.88985 | 4691 ft | 173 kts | 103° |
| 2026-05-04 12:09 | 43.61881 | 10.90630 | 4579 ft | 179 kts | 78° |
| 2026-05-04 12:09 | 43.62509 | 10.92115 | 4503 ft | 182 kts | 51° |
| 2026-05-04 12:09 | 43.63366 | 10.93405 | 4291 ft | 184 kts | 51° |
| 2026-05-04 12:10 | 43.64220 | 10.94734 | 4196 ft | 185 kts | 50° |
| 2026-05-04 12:10 | 43.65085 | 10.96054 | 4027 ft | 186 kts | 50° |
| 2026-05-04 12:10 | 43.65950 | 10.97377 | 3891 ft | 186 kts | 50° |
| 2026-05-04 12:10 | 43.66810 | 10.98686 | 3762 ft | 185 kts | 49° |
| 2026-05-04 12:11 | 43.67644 | 10.99965 | 3696 ft | 175 kts | 51° |
| 2026-05-04 12:11 | 43.68456 | 11.01218 | 3401 ft | 176 kts | 50° |
| 2026-05-04 12:11 | 43.69252 | 11.02448 | 3150 ft | 170 kts | 51° |
| 2026-05-04 12:11 | 43.70025 | 11.03651 | 2960 ft | 157 kts | 50° |
| 2026-05-04 12:12 | 43.70755 | 11.04764 | 2940 ft | 165 kts | 50° |
| 2026-05-04 12:12 | 43.71532 | 11.05957 | 2778 ft | 172 kts | 50° |
| 2026-05-04 12:12 | 43.72348 | 11.07234 | 2532 ft | 179 kts | 49° |
| 2026-05-04 12:12 | 43.73203 | 11.08504 | 2300 ft | 181 kts | 49° |
| 2026-05-04 12:13 | 43.74024 | 11.09742 | 2054 ft | 167 kts | 48° |
| 2026-05-04 12:14 | 43.78478 | 11.16579 | 859 ft | 131 kts | 50° |
| 2026-05-04 12:15 | 43.79071 | 11.17532 | 691 ft | 130 kts | 47° |
| 2026-05-04 12:15 | 43.79667 | 11.18460 | 457 ft | 126 kts | 48° |
| 2026-05-04 12:15 | 43.80240 | 11.19329 | 251 ft | 119 kts | 47° |
| 2026-05-04 12:15 | 43.80765 | 11.20134 | 123 ft | 99 kts | 44° |
| 2026-05-04 12:16 | 43.81147 | 11.20730 | 124 ft | 61 kts | 50° |
| 2026-05-04 12:16 | 43.81245 | 11.20897 | 132 ft | 7 kts | 45° |
| 2026-05-04 12:16 | 43.81233 | 11.20850 | 129 ft | 13 kts | 224° |
| 2026-05-04 12:16 | 43.81155 | 11.20742 | 126 ft | 18 kts | 224° |
| 2026-05-04 12:17 | 43.81061 | 11.20599 | 122 ft | 22 kts | 226° |
| 2026-05-04 12:17 | 43.80955 | 11.20436 | 117 ft | 23 kts | 230° |
| 2026-05-04 12:17 | 43.80847 | 11.20263 | 118 ft | 24 kts | 229° |
| 2026-05-04 12:17 | 43.80754 | 11.20122 | 120 ft | 16 kts | 223° |
| 2026-05-04 12:18 | 43.80681 | 11.20020 | 117 ft | 14 kts | 236° |
| 2026-05-04 12:18 | 43.80620 | 11.19916 | 118 ft | 13 kts | 232° |
| 2026-05-04 12:18 | 43.80566 | 11.19814 | 116 ft | 13 kts | 253° |
| 2026-05-04 12:18 | 43.80602 | 11.19717 | 117 ft | 10 kts | 321° |
| 2026-05-04 12:19 | 43.80642 | 11.19669 | 120 ft | 5 kts | 317° |
| 2026-05-04 12:19 | 43.80661 | 11.19645 | 121 ft | 3 kts | 316° |
| 2026-05-04 12:19 | 43.80670 | 11.19631 | 119 ft | 4 kts | 313° |
| 2026-05-04 12:20 | 43.80692 | 11.19606 | 123 ft | 5 kts | 323° |
| 2026-05-04 12:20 | 43.80732 | 11.19561 | 124 ft | 9 kts | 319° |
| 2026-05-04 12:20 | 43.80755 | 11.19505 | 125 ft | 7 kts | 240° |
| 2026-05-04 12:20 | 43.80740 | 11.19457 | 125 ft | 0 kts | 247° |